MST,Max TemperatureF,Mean TemperatureF,Min TemperatureF,Max Dew PointF,MeanDew PointF,Min DewpointF,Max Humidity, Mean Humidity, Min Humidity, Max Sea Level PressureIn, Mean Sea Level PressureIn, Min Sea Level PressureIn, Max VisibilityMiles, Mean VisibilityMiles, Min VisibilityMiles, Max Wind SpeedMPH, Mean Wind SpeedMPH, Max Gust SpeedMPH,PrecipitationIn, CloudCover, Events, WindDirDegrees
2011-11-1,80,58,37,29,26,23,61,32,12,29.98,29.84,29.73,10,10,10,17,6,21,0.00,0,,174
2011-11-2,68,54,39,25,17,4,40,24,10,30.48,30.01,29.71,10,10,10,28,11,39,0.12,0,,286
2011-11-3,57,38,27,19,17,15,60,42,29,30.42,30.29,30.14,10,10,10,8,5,,0.00,0,,154
2011-11-4,71,51,32,30,23,16,54,35,19,30.13,29.92,29.64,10,10,10,15,5,,0.00,0,,172
2011-11-5,64,55,43,42,28,21,61,34,24,29.86,29.68,29.54,10,9,4,29,16,39,0.39,1,Rain,224
2011-11-6,63,50,36,32,28,23,62,45,30,29.96,29.89,29.83,10,10,10,12,4,,0.00,1,,168
2011-11-7,65,50,35,34,27,20,67,44,22,29.93,29.85,29.74,10,10,4,30,8,37,0.00,1,,232
2011-11-8,54,40,26,21,19,16,65,42,26,30.22,30.08,29.91,10,10,10,10,4,,0.00,0,,359
2011-11-9,57,44,30,23,20,17,59,43,25,30.42,30.33,30.21,10,10,10,10,2,,0.00,0,,216
2011-11-10,55,40,24,22,17,12,69,43,23,30.51,30.38,30.23,10,10,10,8,3,,0.00,0,,47
2011-11-11,56,42,28,19,15,12,52,35,19,30.21,30.07,29.92,10,10,10,7,3,,0.00,2,,100
2011-11-12,70,59,48,37,22,18,45,25,17,29.89,29.84,29.76,10,10,10,23,7,,0.00,2,,185
2011-11-13,69,62,54,50,42,37,72,52,38,29.85,29.79,29.70,10,10,10,20,11,30,0.00,6,Rain,201
2011-11-14,65,56,47,48,44,38,84,62,43,29.83,29.76,29.67,10,10,10,14,9,,0.00,2,,155
2011-11-15,65,50,34,37,28,22,84,45,20,29.88,29.83,29.78,10,10,10,12,5,,0.00,0,,349
2011-11-16,64,49,34,33,24,16,76,44,22,30.17,30.04,29.88,10,10,10,14,6,,0.00,0,,23
2011-11-17,61,46,31,27,21,15,55,40,26,30.28,30.13,29.97,10,10,10,10,4,,0.00,0,,157
2011-11-18,70,52,33,32,24,19,63,38,17,29.97,29.85,29.75,10,10,10,14,5,20,0.00,0,,165
2011-11-19,67,58,47,25,21,16,36,25,14,29.86,29.80,29.73,10,10,10,12,8,,0.00,1,,171
2011-11-20,70,56,43,33,25,15,43,34,23,29.96,29.91,29.86,10,8,2,15,5,20,0.00,0,,157
2011-11-21,65,52,37,46,35,23,89,58,29,30.10,29.93,29.85,10,8,2,34,9,46,0.14,2,Rain-Thunderstorm,311
2011-11-22,62,48,33,36,31,26,87,59,27,30.25,30.19,30.11,10,10,10,17,10,20,0.00,0,,353
2011-11-23,63,46,28,28,24,21,74,49,25,30.30,30.21,30.14,10,10,10,7,2,,0.00,0,,145
2011-11-24,67,48,30,46,27,17,75,45,21,30.16,30.05,29.93,10,10,10,13,4,,0.00,1,,172
2011-11-25,55,47,39,50,45,36,100,85,60,29.99,29.85,29.80,10,9,2,16,7,21,0.10,4,Rain-Thunderstorm,311
2011-11-26,54,44,31,31,23,18,66,46,27,30.48,30.25,29.97,10,10,10,24,13,32,0.00,0,,352
2011-11-27,50,37,24,22,19,14,76,52,24,30.58,30.47,30.35,10,10,10,9,4,,0.00,0,,113
2011-11-28,61,42,24,25,22,19,80,54,22,30.34,30.22,30.11,10,10,10,12,3,,0.00,0,,16
2011-11-29,60,44,27,25,22,19,78,51,20,30.26,30.20,30.13,10,10,10,10,4,,0.00,0,,127
2011-11-30,61,44,26,24,21,18,72,44,21,30.20,30.01,29.81,10,10,10,10,3,,0.00,0,,172